createdAt,value
2023-03-20T00:02:07.418Z,100629.05
2023-03-20T00:05:16.860Z,100630.34
2023-03-20T00:08:29.779Z,100629.23
2023-03-20T00:11:56.802Z,100630.56
2023-03-20T00:15:24.895Z,100626.85
2023-03-20T00:18:52.862Z,100622.39
2023-03-20T00:22:01.747Z,100613.76
2023-03-20T00:25:31.679Z,100619.37
2023-03-20T00:28:48.118Z,100618.33
2023-03-20T00:32:16.297Z,100612.92
2023-03-20T00:35:44.392Z,100615.48
2023-03-20T00:39:13.956Z,100614.10
2023-03-20T00:42:42.425Z,100611.22
2023-03-20T00:46:10.562Z,100610.61
2023-03-20T00:49:38.947Z,100615.08
2023-03-20T00:53:06.819Z,100619.14
2023-03-20T00:56:35.620Z,100619.93
2023-03-20T00:59:45.757Z,100618.21
2023-03-20T01:03:14.045Z,100610.51
2023-03-20T01:06:42.604Z,100607.64
2023-03-20T01:10:10.896Z,100611.79
2023-03-20T01:13:35.131Z,100611.25
2023-03-20T01:17:03.197Z,100607.96
2023-03-20T01:20:31.362Z,100607.85
2023-03-20T01:23:39.975Z,100603.83
2023-03-20T01:27:07.989Z,100599.46
2023-03-20T01:30:36.013Z,100592.02
2023-03-20T01:34:03.939Z,100592.42
2023-03-20T01:37:31.817Z,100581.70
2023-03-20T01:40:40.761Z,100576.04
2023-03-20T01:44:08.889Z,100578.48
2023-03-20T01:47:36.869Z,100582.95
2023-03-20T01:51:04.840Z,100586.43
2023-03-20T01:54:32.836Z,100591.45
2023-03-20T01:58:02.980Z,100588.16
2023-03-20T02:01:29.412Z,100586.02
2023-03-20T02:04:57.733Z,100582.73
2023-03-20T02:08:25.725Z,100582.42
2023-03-20T02:11:41.824Z,100584.73
2023-03-20T02:14:50.574Z,100584.09
2023-03-20T02:18:24.179Z,100579.72
2023-03-20T02:21:52.531Z,100580.11
2023-03-20T02:25:01.376Z,100578.96
2023-03-20T02:28:29.499Z,100574.13
2023-03-20T02:31:52.962Z,100572.79
2023-03-20T02:35:20.936Z,100571.16
2023-03-20T02:38:49.005Z,100579.28
2023-03-20T02:42:17.076Z,100577.42
2023-03-20T02:45:45.145Z,100579.46
2023-03-20T02:49:13.391Z,100581.22
2023-03-20T02:52:41.881Z,100587.73
2023-03-20T02:56:09.899Z,100588.93
2023-03-20T02:59:37.883Z,100592.29
2023-03-20T03:02:48.588Z,100587.92
2023-03-20T03:06:16.325Z,100588.27
2023-03-20T03:09:44.373Z,100588.77
2023-03-20T03:13:12.822Z,100592.39
2023-03-20T03:16:41.250Z,100593.41
2023-03-20T03:20:09.471Z,100591.44
2023-03-20T03:23:37.635Z,100589.84
2023-03-20T03:27:05.817Z,100589.63
2023-03-20T03:30:33.962Z,100588.16
2023-03-20T03:34:03.328Z,100583.18
2023-03-20T03:37:31.370Z,100583.27
2023-03-20T03:40:59.547Z,100584.31
2023-03-20T03:44:28.148Z,100583.06
2023-03-20T03:47:56.047Z,100590.92
2023-03-20T03:51:24.055Z,100588.18
2023-03-20T03:54:52.035Z,100587.61
2023-03-20T03:57:51.524Z,100586.88
2023-03-20T04:01:00.342Z,100582.09
2023-03-20T04:04:28.137Z,100588.34
2023-03-20T04:07:56.049Z,100588.33
2023-03-20T04:11:25.328Z,100593.31
2023-03-20T04:14:53.761Z,100590.73
2023-03-20T04:18:23.098Z,100592.70
2023-03-20T04:21:32.449Z,100591.75
2023-03-20T04:25:00.494Z,100585.13
2023-03-20T04:28:24.116Z,100588.32
2023-03-20T04:31:52.176Z,100592.20
2023-03-20T04:35:03.501Z,100593.47
2023-03-20T04:38:15.528Z,100598.83
2023-03-20T04:41:43.886Z,100595.97
2023-03-20T04:45:13.347Z,100601.25
2023-03-20T04:48:41.650Z,100610.36
2023-03-20T04:52:10.345Z,100615.16
2023-03-20T04:55:19.979Z,100616.85
2023-03-20T04:58:47.946Z,100617.50
2023-03-20T05:01:56.643Z,100615.29
2023-03-20T05:05:24.647Z,100617.04
2023-03-20T05:08:53.278Z,100617.72
2023-03-20T05:12:05.303Z,100622.76
2023-03-20T05:15:16.816Z,100625.95
2023-03-20T05:18:10.828Z,100624.42
2023-03-20T05:21:12.347Z,100624.67
2023-03-20T05:24:39.453Z,100628.05
2023-03-20T05:28:13.318Z,100631.20
2023-03-20T05:31:47.265Z,100638.53
2023-03-20T05:35:24.473Z,100641.16
2023-03-20T05:38:52.690Z,100642.00
2023-03-20T05:42:32.798Z,100648.20
2023-03-20T05:45:57.477Z,100651.48
2023-03-20T05:49:37.880Z,100655.52
2023-03-20T05:53:06.068Z,100659.55
2023-03-20T05:56:33.440Z,100666.25
2023-03-20T05:59:59.874Z,100668.16
2023-03-20T06:03:07.845Z,100668.05
2023-03-20T06:05:56.085Z,100667.94
2023-03-20T06:09:24.296Z,100666.33
2023-03-20T06:12:52.573Z,100668.05
2023-03-20T06:16:20.686Z,100664.36
2023-03-20T06:19:25.441Z,100660.34
2023-03-20T06:22:34.019Z,100663.89
2023-03-20T06:25:48.402Z,100661.29
2023-03-20T06:28:57.254Z,100661.94
2023-03-20T06:31:54.260Z,100658.99
2023-03-20T06:35:22.599Z,100663.23
2023-03-20T06:38:11.678Z,100670.23
2023-03-20T06:41:01.369Z,100674.45
2023-03-20T06:44:25.618Z,100673.13
2023-03-20T06:47:34.077Z,100673.17
2023-03-20T06:51:01.922Z,100676.08
2023-03-20T06:54:18.107Z,100673.59
2023-03-20T06:57:46.317Z,100671.19
2023-03-20T07:01:14.336Z,100671.89
2023-03-20T07:04:04.620Z,100672.88
2023-03-20T07:07:32.702Z,100676.33
2023-03-20T07:10:42.872Z,100677.30
2023-03-20T07:13:55.005Z,100683.59
2023-03-20T07:17:23.444Z,100687.64
2023-03-20T07:20:33.145Z,100689.42
2023-03-20T07:23:50.046Z,100690.08
2023-03-20T07:27:18.137Z,100685.77
2023-03-20T07:30:46.428Z,100683.30
2023-03-20T07:34:03.200Z,100680.80
2023-03-20T07:37:19.716Z,100682.84
2023-03-20T07:40:48.166Z,100684.26
2023-03-20T07:44:16.206Z,100688.55
2023-03-20T07:47:44.559Z,100684.08
2023-03-20T07:51:12.677Z,100681.80
2023-03-20T07:53:42.148Z,100681.41
2023-03-20T07:57:10.296Z,100679.56
2023-03-20T08:00:38.415Z,100685.84
2023-03-20T08:04:06.457Z,100683.02
2023-03-20T08:07:34.560Z,100681.92
2023-03-20T08:10:43.483Z,100681.54
2023-03-20T08:13:59.750Z,100681.35
2023-03-20T08:17:14.970Z,100681.66
2023-03-20T08:20:24.923Z,100687.92
2023-03-20T08:23:33.291Z,100691.83
2023-03-20T08:27:01.339Z,100687.70
2023-03-20T08:30:13.283Z,100689.37
2023-03-20T08:33:21.628Z,100690.12
2023-03-20T08:36:27.524Z,100686.39
2023-03-20T08:39:55.279Z,100687.42
2023-03-20T08:43:04.631Z,100687.86
2023-03-20T08:46:33.063Z,100689.78
2023-03-20T08:50:01.225Z,100693.48
2023-03-20T08:52:57.494Z,100692.17
2023-03-20T08:56:25.520Z,100690.27
2023-03-20T08:59:54.648Z,100691.17
2023-03-20T09:03:03.233Z,100690.66
2023-03-20T09:06:12.240Z,100688.70
2023-03-20T09:09:38.012Z,100688.60
2023-03-20T09:12:07.701Z,100684.34
2023-03-20T09:15:36.156Z,100686.91
2023-03-20T09:18:44.473Z,100684.51
2023-03-20T09:22:12.801Z,100686.52
2023-03-20T09:25:40.964Z,100684.36
2023-03-20T09:28:49.214Z,100684.46
2023-03-20T09:31:38.207Z,100685.50
2023-03-20T09:34:54.216Z,100682.26
2023-03-20T09:37:44.249Z,100678.09
2023-03-20T09:40:35.790Z,100671.16
2023-03-20T09:44:05.082Z,100669.85
2023-03-20T09:47:00.380Z,100665.59
2023-03-20T09:49:39.847Z,100665.73
2023-03-20T09:52:48.853Z,100668.45
2023-03-20T09:55:56.908Z,100664.52
2023-03-20T09:59:12.564Z,100655.11
2023-03-20T10:02:02.157Z,100652.98
2023-03-20T10:04:51.028Z,100649.65
2023-03-20T10:07:49.152Z,100647.77
2023-03-20T10:10:41.254Z,100641.14
2023-03-20T10:13:50.102Z,100631.55
2023-03-20T10:16:58.846Z,100632.57
2023-03-20T10:20:07.503Z,100634.48
2023-03-20T10:23:16.966Z,100632.04
2023-03-20T10:26:27.051Z,100628.58
2023-03-20T10:29:19.313Z,100623.60
2023-03-20T10:32:48.042Z,100625.61
2023-03-20T10:35:48.157Z,100620.18
2023-03-20T10:38:44.679Z,100620.80
2023-03-20T10:41:53.480Z,100622.09
2023-03-20T10:45:21.465Z,100618.22
2023-03-20T10:48:10.475Z,100614.98
2023-03-20T10:51:19.286Z,100613.98
2023-03-20T10:54:28.214Z,100614.52
2023-03-20T10:57:37.494Z,100607.43
2023-03-20T11:01:05.437Z,100600.48
2023-03-20T11:04:30.249Z,100600.85
2023-03-20T11:07:58.019Z,100598.13
2023-03-20T11:11:26.365Z,100586.60
2023-03-20T11:14:54.343Z,100581.60
2023-03-20T11:18:22.375Z,100578.70
2023-03-20T11:21:50.458Z,100569.21
2023-03-20T11:24:59.121Z,100561.14
2023-03-20T11:28:11.056Z,100560.83
2023-03-20T11:31:20.134Z,100560.91
2023-03-20T11:33:49.117Z,100552.46
2023-03-20T11:37:17.047Z,100546.95
2023-03-20T11:40:25.944Z,100539.30
2023-03-20T11:43:36.384Z,100539.78
2023-03-20T11:47:04.472Z,100537.73
2023-03-20T11:50:32.721Z,100538.23
2023-03-20T11:53:25.950Z,100539.08
2023-03-20T11:56:07.960Z,100538.20
2023-03-20T11:59:17.218Z,100531.05
2023-03-20T12:02:23.452Z,100529.50
2023-03-20T12:05:16.812Z,100525.84
2023-03-20T12:08:22.737Z,100520.79
2023-03-20T12:10:51.789Z,100515.91
2023-03-20T12:14:00.779Z,100515.56
2023-03-20T12:16:29.689Z,100513.09
2023-03-20T12:19:19.223Z,100512.36
2023-03-20T12:22:09.297Z,100515.77
2023-03-20T12:25:37.541Z,100510.15
2023-03-20T12:28:53.334Z,100504.02
2023-03-20T12:32:01.691Z,100498.55
2023-03-20T12:35:21.486Z,100497.70
2023-03-20T12:38:10.879Z,100499.34
2023-03-20T12:41:38.867Z,100493.57
2023-03-20T12:44:55.007Z,100488.83
2023-03-20T12:48:05.515Z,100477.89
2023-03-20T12:51:33.748Z,100478.59
2023-03-20T12:55:01.950Z,100470.98
2023-03-20T12:58:09.956Z,100478.86
2023-03-20T13:00:59.428Z,100480.92
2023-03-20T13:04:23.091Z,100471.30
2023-03-20T13:07:32.149Z,100467.94
2023-03-20T13:11:00.641Z,100471.09
2023-03-20T13:14:17.336Z,100470.40
2023-03-20T13:17:45.421Z,100468.32
2023-03-20T13:21:13.689Z,100466.88
2023-03-20T13:24:41.946Z,100460.40
2023-03-20T13:28:12.276Z,100462.16
2023-03-20T13:31:40.801Z,100459.45
2023-03-20T13:34:49.202Z,100454.61
2023-03-20T13:38:17.665Z,100454.36
2023-03-20T13:41:45.907Z,100456.99
2023-03-20T13:45:14.093Z,100452.31
2023-03-20T13:48:42.468Z,100453.31
2023-03-20T13:51:51.147Z,100451.56
2023-03-20T13:55:19.314Z,100452.34
2023-03-20T13:58:48.535Z,100452.93
2023-03-20T14:02:17.091Z,100449.41
2023-03-20T14:05:25.036Z,100456.41
2023-03-20T14:08:34.089Z,100451.45
2023-03-20T14:12:02.355Z,100451.55
2023-03-20T14:15:30.589Z,100446.17
2023-03-20T14:18:59.597Z,100448.66
2023-03-20T14:22:27.978Z,100445.02
2023-03-20T14:25:56.323Z,100443.27
2023-03-20T14:29:24.397Z,100440.95
2023-03-20T14:32:52.549Z,100437.84
2023-03-20T14:36:29.350Z,100435.14
2023-03-20T14:39:37.506Z,100431.42
2023-03-20T14:42:26.261Z,100432.96
2023-03-20T14:45:54.179Z,100430.38
2023-03-20T14:49:22.278Z,100430.27
2023-03-20T14:52:50.397Z,100429.30
2023-03-20T14:56:18.510Z,100427.86
2023-03-20T14:59:46.573Z,100430.63
2023-03-20T15:02:54.711Z,100425.80
2023-03-20T15:06:19.490Z,100424.13
2023-03-20T15:08:49.230Z,100426.93
2023-03-20T15:11:57.344Z,100424.45
2023-03-20T15:15:25.168Z,100420.99
2023-03-20T15:18:53.228Z,100426.86
2023-03-20T15:22:21.413Z,100430.85
2023-03-20T15:25:11.732Z,100429.38
2023-03-20T15:28:39.634Z,100425.27
2023-03-20T15:32:14.485Z,100426.66
2023-03-20T15:35:35.724Z,100424.36
2023-03-20T15:39:03.775Z,100418.87
2023-03-20T15:42:12.763Z,100418.17
2023-03-20T15:45:21.101Z,100414.62
2023-03-20T15:48:30.105Z,100422.33
2023-03-20T15:51:38.845Z,100419.61
2023-03-20T15:55:07.190Z,100419.52
2023-03-20T15:58:35.438Z,100418.92
2023-03-20T16:01:43.934Z,100419.09
2023-03-20T16:05:11.916Z,100424.67
2023-03-20T16:08:39.866Z,100426.70
2023-03-20T16:12:08.344Z,100429.58
2023-03-20T16:15:32.938Z,100435.89
2023-03-20T16:19:01.238Z,100434.95
2023-03-20T16:22:10.094Z,100438.91
2023-03-20T16:25:38.488Z,100438.81
2023-03-20T16:29:06.377Z,100445.52
2023-03-20T16:32:34.388Z,100447.77
2023-03-20T16:36:02.468Z,100454.16
2023-03-20T16:39:11.213Z,100457.30
2023-03-20T16:42:00.481Z,100460.23
2023-03-20T16:45:28.514Z,100460.64
2023-03-20T16:48:57.333Z,100465.48
2023-03-20T16:52:25.383Z,100467.73
2023-03-20T16:55:53.375Z,100471.19
2023-03-20T16:59:05.543Z,100470.48
2023-03-20T17:02:33.905Z,100471.46
2023-03-20T17:06:01.846Z,100473.15
2023-03-20T17:09:29.933Z,100471.47
2023-03-20T17:12:58.543Z,100474.58
2023-03-20T17:16:26.900Z,100483.92
2023-03-20T17:19:44.903Z,100484.36
2023-03-20T17:23:12.852Z,100485.33
2023-03-20T17:26:41.092Z,100485.91
2023-03-20T17:30:11.591Z,100490.61
2023-03-20T17:33:36.846Z,100489.95
2023-03-20T17:37:04.902Z,100492.59
2023-03-20T17:40:16.758Z,100493.70
2023-03-20T17:43:44.869Z,100496.94
2023-03-20T17:46:58.632Z,100494.60
2023-03-20T17:50:23.272Z,100496.25
2023-03-20T17:53:51.099Z,100494.02
2023-03-20T17:57:00.992Z,100499.63
2023-03-20T18:00:24.877Z,100499.79
2023-03-20T18:03:33.241Z,100503.08
2023-03-20T18:07:01.594Z,100501.40
2023-03-20T18:10:29.331Z,100502.34
2023-03-20T18:13:57.352Z,100501.52
2023-03-20T18:17:25.508Z,100500.30
2023-03-20T18:20:53.673Z,100503.04
2023-03-20T18:24:21.776Z,100503.64
2023-03-20T18:27:49.864Z,100514.31
2023-03-20T18:31:17.767Z,100518.10
2023-03-20T18:34:27.645Z,100524.04
2023-03-20T18:37:16.778Z,100527.64
2023-03-20T18:40:44.776Z,100529.61
2023-03-20T18:44:12.749Z,100531.13
2023-03-20T18:47:21.596Z,100533.17
2023-03-20T18:50:49.566Z,100539.23
2023-03-20T18:54:17.861Z,100534.71
2023-03-20T18:57:45.776Z,100537.70
2023-03-20T19:00:54.231Z,100536.94
2023-03-20T19:04:22.413Z,100540.85
2023-03-20T19:07:50.308Z,100541.31
2023-03-20T19:11:21.272Z,100541.38
2023-03-20T19:14:46.088Z,100543.95
2023-03-20T19:18:14.049Z,100543.41
2023-03-20T19:21:42.140Z,100547.14
2023-03-20T19:25:10.088Z,100546.65
2023-03-20T19:28:40.886Z,100550.17
2023-03-20T19:32:05.908Z,100549.54
2023-03-20T19:39:03.066Z,100553.79
2023-03-20T19:42:52.918Z,100559.58
2023-03-20T19:45:59.548Z,100556.86
2023-03-20T19:49:08.664Z,100559.08
2023-03-20T19:52:36.525Z,100562.83
2023-03-20T19:56:04.271Z,100560.64
2023-03-20T19:59:32.871Z,100561.81
2023-03-20T20:03:00.601Z,100562.78
2023-03-20T20:06:32.236Z,100562.71
2023-03-20T20:09:56.633Z,100568.27
2023-03-20T20:12:25.254Z,100564.67
2023-03-20T20:15:53.311Z,100564.48
2023-03-20T20:19:21.351Z,100559.34
2023-03-20T20:22:49.411Z,100561.89
2023-03-20T20:26:17.414Z,100557.95
2023-03-20T20:29:45.235Z,100557.51
2023-03-20T20:33:14.412Z,100561.30
2023-03-20T20:39:50.932Z,100555.27
2023-03-20T20:43:43.949Z,100550.77
2023-03-20T20:46:46.918Z,100543.82
2023-03-20T20:50:14.659Z,100539.23
2023-03-20T20:53:42.713Z,100538.61
2023-03-20T20:56:50.795Z,100533.02
2023-03-20T21:00:00.145Z,100530.85
2023-03-20T21:03:09.833Z,100533.20
2023-03-20T21:07:06.235Z,100530.91
2023-03-20T21:10:06.382Z,100528.08
2023-03-20T21:13:34.452Z,100531.35
2023-03-20T21:17:02.486Z,100517.94
2023-03-20T21:20:30.395Z,100518.05
2023-03-20T21:23:58.393Z,100515.23
2023-03-20T21:27:26.595Z,100511.06
2023-03-20T21:30:34.605Z,100510.48
2023-03-20T21:34:02.564Z,100506.00
2023-03-20T21:40:58.677Z,100497.59
2023-03-20T21:45:05.762Z,100495.95
2023-03-20T21:55:22.370Z,100485.27
2023-03-20T22:05:53.131Z,100475.76
2023-03-20T22:09:39.047Z,100472.52
2023-03-20T22:13:00.388Z,100470.94
2023-03-20T22:16:24.230Z,100471.77
2023-03-20T22:20:03.574Z,100469.93
2023-03-20T22:23:06.922Z,100468.06
2023-03-20T22:26:30.966Z,100469.33
2023-03-20T22:29:52.459Z,100468.73
2023-03-20T22:33:23.698Z,100468.92
2023-03-20T22:36:25.659Z,100467.23
2023-03-20T22:46:05.659Z,100478.04
2023-03-20T22:49:20.534Z,100478.36
2023-03-20T22:52:49.886Z,100474.06
2023-03-20T22:56:16.093Z,100471.30
2023-03-20T22:59:44.159Z,100468.95
2023-03-20T23:02:57.295Z,100475.03
2023-03-20T23:06:22.030Z,100473.48
2023-03-20T23:09:49.792Z,100472.79
2023-03-20T23:13:17.611Z,100469.55
2023-03-20T23:16:45.627Z,100471.56
2023-03-20T23:20:08.674Z,100473.11
2023-03-20T23:23:23.275Z,100473.31
2023-03-20T23:26:31.932Z,100472.23
2023-03-20T23:29:59.571Z,100473.55
2023-03-20T23:33:08.862Z,100467.27
2023-03-20T23:36:37.696Z,100467.88
2023-03-20T23:40:04.579Z,100467.80
2023-03-20T23:43:32.594Z,100462.30
2023-03-20T23:47:03.289Z,100455.98
2023-03-20T23:50:36.873Z,100456.62
2023-03-20T23:53:56.832Z,100461.76
2023-03-20T23:56:48.531Z,100459.61
